createdAt,value
2019-05-25T00:00:11.503Z,3.55
2019-05-25T00:02:41.205Z,5.00
2019-05-25T00:05:11.254Z,3.45
2019-05-25T00:07:40.638Z,4.53
2019-05-25T00:10:10.175Z,5.85
2019-05-25T00:12:39.499Z,6.37
2019-05-25T00:15:08.990Z,6.50
2019-05-25T00:17:38.440Z,5.45
2019-05-25T00:20:07.909Z,3.83
2019-05-25T00:22:37.255Z,9.95
2019-05-25T00:25:07.713Z,4.33
2019-05-25T00:27:37.117Z,4.75
2019-05-25T00:30:08.450Z,4.92
2019-05-25T00:32:37.964Z,3.83
2019-05-25T00:35:08.109Z,3.62
2019-05-25T00:37:37.535Z,5.50
2019-05-25T00:40:08.866Z,5.05
2019-05-25T00:42:39.206Z,3.90
2019-05-25T00:45:09.154Z,6.95
2019-05-25T00:47:38.554Z,8.13
2019-05-25T00:50:08.630Z,4.05
2019-05-25T00:52:38.135Z,4.10
2019-05-25T00:55:09.078Z,5.90
2019-05-25T00:57:38.395Z,5.53
2019-05-25T01:00:08.657Z,7.87
2019-05-25T01:02:40.127Z,5.22
2019-05-25T01:05:09.857Z,5.33
2019-05-25T01:07:39.355Z,5.00
2019-05-25T01:10:09.221Z,3.90
2019-05-25T01:12:39.149Z,3.95
2019-05-25T01:15:09.248Z,4.03
2019-05-25T01:17:38.630Z,6.47
2019-05-25T01:20:10.480Z,4.08
2019-05-25T01:22:40.048Z,3.72
2019-05-25T01:25:09.823Z,4.08
2019-05-25T01:27:39.136Z,5.70
2019-05-25T01:30:11.243Z,7.87
2019-05-25T01:32:40.569Z,5.92
2019-05-25T01:35:10.233Z,3.98
2019-05-25T01:37:39.757Z,7.33
2019-05-25T01:40:10.009Z,15.18
2019-05-25T01:42:39.337Z,7.58
2019-05-25T01:45:10.420Z,5.37
2019-05-25T01:47:39.727Z,4.62
2019-05-25T01:50:09.502Z,5.80
2019-05-25T01:52:38.829Z,5.55
2019-05-25T01:55:08.236Z,6.10
2019-05-25T01:57:37.548Z,5.05
2019-05-25T02:00:09.082Z,5.37
2019-05-25T02:02:40.012Z,9.68
2019-05-25T02:05:09.483Z,6.45
2019-05-25T02:07:38.797Z,6.37
2019-05-25T02:10:10.146Z,9.50
2019-05-25T02:12:39.483Z,9.00
2019-05-25T02:15:10.019Z,8.53
2019-05-25T02:17:39.351Z,7.80
2019-05-25T02:20:09.419Z,8.55
2019-05-25T02:22:38.812Z,12.15
2019-05-25T02:25:17.494Z,9.33
2019-05-25T02:27:41.174Z,10.53
2019-05-25T02:30:13.810Z,11.78
2019-05-25T02:32:43.214Z,10.68
2019-05-25T02:35:15.686Z,9.35
2019-05-25T02:37:45.006Z,7.42
2019-05-25T02:40:14.479Z,11.08
2019-05-25T02:42:43.802Z,8.60
2019-05-25T02:45:13.211Z,10.80
2019-05-25T02:47:42.525Z,9.20
2019-05-25T02:50:12.040Z,11.12
2019-05-25T02:52:41.380Z,12.45
2019-05-25T02:55:12.623Z,9.70
2019-05-25T02:57:41.937Z,12.13
2019-05-25T03:00:12.181Z,10.00
2019-05-25T03:02:41.732Z,11.05
2019-05-25T03:05:14.305Z,12.75
2019-05-25T03:07:45.407Z,10.20
2019-05-25T03:10:15.146Z,12.23
2019-05-25T03:12:44.727Z,11.68
2019-05-25T03:15:14.594Z,9.80
2019-05-25T03:17:43.918Z,13.00
2019-05-25T03:20:13.494Z,12.55
2019-05-25T03:22:42.814Z,8.93
2019-05-25T03:25:12.530Z,10.25
2019-05-25T03:27:41.849Z,9.33
2019-05-25T03:30:11.419Z,9.28
2019-05-25T03:32:40.825Z,9.50
2019-05-25T03:35:10.293Z,8.63
2019-05-25T03:37:39.631Z,13.20
2019-05-25T03:40:09.200Z,10.93
2019-05-25T03:42:38.531Z,10.18
2019-05-25T03:45:08.113Z,11.63
2019-05-25T03:47:37.422Z,11.75
2019-05-25T03:50:07.026Z,12.33
2019-05-25T03:52:36.378Z,10.70
2019-05-25T03:55:06.602Z,16.75
2019-05-25T03:57:35.928Z,11.20
2019-05-25T04:00:07.150Z,11.38
2019-05-25T04:02:36.590Z,13.88
2019-05-25T04:05:07.037Z,10.80
2019-05-25T04:07:36.381Z,13.62
2019-05-25T04:10:06.841Z,13.50
2019-05-25T04:12:36.181Z,10.82
2019-05-25T04:15:06.946Z,11.63
2019-05-25T04:17:37.257Z,12.35
2019-05-25T04:20:07.622Z,10.80
2019-05-25T04:22:37.949Z,11.55
2019-05-25T04:25:08.209Z,11.05
2019-05-25T04:27:37.553Z,11.18
2019-05-25T04:30:07.614Z,10.40
2019-05-25T04:32:36.950Z,13.75
2019-05-25T04:35:08.118Z,11.28
2019-05-25T04:37:37.464Z,13.00
2019-05-25T04:40:07.455Z,11.50
2019-05-25T04:42:36.938Z,11.08
2019-05-25T04:45:09.248Z,11.88
2019-05-25T04:47:38.581Z,10.82
2019-05-25T04:50:08.597Z,12.00
2019-05-25T04:52:41.203Z,15.20
2019-05-25T04:55:09.343Z,11.63
2019-05-25T04:57:38.756Z,12.30
2019-05-25T05:00:09.821Z,12.25
2019-05-25T05:02:39.174Z,11.68
2019-05-25T05:05:08.572Z,11.28
2019-05-25T05:07:37.906Z,10.38
2019-05-25T05:10:07.639Z,11.30
2019-05-25T05:12:37.967Z,12.13
2019-05-25T05:15:07.934Z,11.05
2019-05-25T05:17:37.283Z,13.20
2019-05-25T05:20:09.954Z,10.15
2019-05-25T05:22:39.289Z,11.95
2019-05-25T05:25:09.852Z,10.65
2019-05-25T05:27:40.161Z,9.90
2019-05-25T05:30:10.222Z,10.05
2019-05-25T05:32:39.636Z,9.80
2019-05-25T05:35:09.463Z,10.60
2019-05-25T05:37:41.511Z,10.63
2019-05-25T05:40:11.082Z,11.73
2019-05-25T05:42:43.154Z,11.28
2019-05-25T05:45:12.906Z,9.63
2019-05-25T05:47:46.695Z,10.82
2019-05-25T05:50:16.563Z,11.33
2019-05-25T05:52:48.449Z,12.93
2019-05-25T05:55:20.851Z,12.28
2019-05-25T05:57:50.194Z,13.38
2019-05-25T06:00:20.562Z,12.82
2019-05-25T06:02:49.902Z,12.60
2019-05-25T06:05:19.230Z,13.78
2019-05-25T06:07:48.570Z,12.78
2019-05-25T06:10:18.191Z,13.22
2019-05-25T06:12:47.798Z,13.30
2019-05-25T06:15:17.767Z,12.47
2019-05-25T06:17:47.122Z,11.50
2019-05-25T06:20:16.789Z,14.38
2019-05-25T06:22:46.118Z,10.25
2019-05-25T06:25:16.592Z,10.23
2019-05-25T06:27:45.914Z,9.98
2019-05-25T06:30:15.684Z,9.78
2019-05-25T06:32:45.006Z,11.20
2019-05-25T06:35:14.682Z,9.98
2019-05-25T06:37:44.006Z,10.53
2019-05-25T06:40:14.638Z,9.85
2019-05-25T06:42:43.962Z,8.90
2019-05-25T06:45:14.155Z,10.75
2019-05-25T06:47:43.533Z,11.03
2019-05-25T06:50:13.912Z,8.50
2019-05-25T06:52:43.234Z,9.80
2019-05-25T06:55:12.882Z,8.53
2019-05-25T06:57:43.843Z,8.75
2019-05-25T07:00:13.747Z,13.72
2019-05-25T07:02:43.115Z,9.90
2019-05-25T07:05:12.749Z,9.78
2019-05-25T07:07:42.080Z,15.32
2019-05-25T07:10:11.481Z,9.65
2019-05-25T07:12:40.801Z,10.93
2019-05-25T07:15:10.777Z,9.55
2019-05-25T07:17:40.343Z,12.00
2019-05-25T07:20:10.390Z,9.68
2019-05-25T07:22:39.715Z,10.70
2019-05-25T07:25:09.598Z,10.32
2019-05-25T07:27:39.003Z,10.15
2019-05-25T07:30:10.278Z,8.70
2019-05-25T07:32:39.593Z,10.28
2019-05-25T07:35:09.384Z,14.30
2019-05-25T07:37:38.703Z,10.95
2019-05-25T07:40:08.285Z,12.88
2019-05-25T07:42:37.626Z,10.60
2019-05-25T07:45:08.658Z,10.80
2019-05-25T07:47:38.000Z,11.70
2019-05-25T07:50:08.252Z,11.50
2019-05-25T07:52:37.567Z,9.23
2019-05-25T07:55:07.549Z,9.78
2019-05-25T07:57:36.939Z,21.23
2019-05-25T08:00:07.215Z,11.63
2019-05-25T08:02:36.709Z,9.30
2019-05-25T08:05:07.096Z,10.23
2019-05-25T08:07:37.495Z,9.38
2019-05-25T08:10:07.297Z,9.13
2019-05-25T08:12:37.657Z,8.73
2019-05-25T08:15:07.354Z,9.90
2019-05-25T08:17:36.662Z,9.50
2019-05-25T08:20:07.238Z,8.88
2019-05-25T08:22:36.718Z,7.87
2019-05-25T08:25:07.889Z,11.00
2019-05-25T08:27:37.220Z,7.65
2019-05-25T08:30:07.679Z,9.53
2019-05-25T08:32:37.070Z,8.70
2019-05-25T08:35:07.647Z,8.78
2019-05-25T08:37:36.994Z,9.50
2019-05-25T08:40:07.334Z,6.47
2019-05-25T08:42:36.709Z,6.17
2019-05-25T08:45:09.606Z,10.15
2019-05-25T08:47:39.090Z,7.17
2019-05-25T08:50:08.838Z,6.28
2019-05-25T08:52:38.675Z,6.62
2019-05-25T08:55:10.153Z,8.25
2019-05-25T08:57:39.481Z,5.70
2019-05-25T09:00:09.545Z,9.05
2019-05-25T09:02:38.939Z,8.60
2019-05-25T09:05:08.895Z,8.25
2019-05-25T09:07:38.221Z,7.47
2019-05-25T09:10:08.086Z,5.55
2019-05-25T09:12:37.428Z,6.40
2019-05-25T09:15:07.585Z,5.15
2019-05-25T09:17:37.155Z,6.90
2019-05-25T09:20:08.514Z,7.22
2019-05-25T09:22:37.841Z,9.43
2019-05-25T09:25:08.929Z,4.62
2019-05-25T09:27:38.296Z,8.68
2019-05-25T09:30:08.858Z,7.37
2019-05-25T09:32:39.155Z,4.92
2019-05-25T09:35:09.225Z,4.78
2019-05-25T09:37:38.656Z,4.60
2019-05-25T09:40:08.889Z,5.72
2019-05-25T09:42:38.854Z,7.72
2019-05-25T09:45:09.151Z,9.53
2019-05-25T09:47:38.561Z,4.72
2019-05-25T09:50:08.334Z,4.30
2019-05-25T09:52:37.664Z,9.25
2019-05-25T09:55:08.423Z,4.40
2019-05-25T09:57:41.428Z,7.20
2019-05-25T10:00:11.138Z,8.00
2019-05-25T10:02:40.745Z,5.50
2019-05-25T10:05:10.559Z,4.17
2019-05-25T10:07:40.966Z,6.62
2019-05-25T10:10:11.023Z,4.85
2019-05-25T10:12:40.370Z,4.33
2019-05-25T10:15:10.100Z,13.83
2019-05-25T10:17:39.488Z,4.03
2019-05-25T10:20:09.309Z,4.50
2019-05-25T10:22:38.698Z,3.67
2019-05-25T10:25:08.862Z,4.22
2019-05-25T10:27:38.259Z,4.28
2019-05-25T10:30:08.417Z,5.35
2019-05-25T10:32:37.756Z,5.05
2019-05-25T10:35:08.416Z,5.60
2019-05-25T10:37:37.758Z,3.45
2019-05-25T10:40:08.010Z,4.72
2019-05-25T10:42:37.369Z,5.83
2019-05-25T10:45:08.696Z,6.37
2019-05-25T10:47:38.221Z,6.10
2019-05-25T10:50:08.585Z,4.62
2019-05-25T10:52:37.902Z,6.25
2019-05-25T10:55:08.679Z,5.70
2019-05-25T10:57:38.566Z,4.85
2019-05-25T11:00:13.314Z,6.10
2019-05-25T11:02:42.619Z,6.15
2019-05-25T11:05:13.990Z,7.35
2019-05-25T11:07:43.353Z,5.83
2019-05-25T11:10:13.046Z,6.53
2019-05-25T11:12:42.365Z,5.03
2019-05-25T11:15:12.243Z,9.08
2019-05-25T11:17:41.568Z,8.63
2019-05-25T11:20:11.742Z,12.30
2019-05-25T11:22:41.058Z,6.97
2019-05-25T11:25:11.233Z,5.20
2019-05-25T11:27:40.622Z,7.65
2019-05-25T11:30:10.747Z,4.47
2019-05-25T11:32:40.354Z,4.15
2019-05-25T11:35:10.125Z,5.92
2019-05-25T11:37:39.446Z,5.08
2019-05-25T11:40:10.623Z,3.90
2019-05-25T11:42:40.130Z,9.10
2019-05-25T11:45:10.435Z,11.43
2019-05-25T11:47:39.844Z,6.85
2019-05-25T11:50:09.924Z,5.17
2019-05-25T11:52:39.354Z,4.03
2019-05-25T11:55:10.224Z,8.58
2019-05-25T11:57:39.537Z,5.33
2019-05-25T12:00:23.610Z,6.30
2019-05-25T12:02:42.127Z,5.17
2019-05-25T12:05:12.024Z,5.70
2019-05-25T12:07:44.505Z,6.62
2019-05-25T12:10:12.922Z,5.12
2019-05-25T12:12:42.289Z,6.10
2019-05-25T12:15:12.153Z,4.72
2019-05-25T12:17:41.486Z,5.30
2019-05-25T12:20:11.375Z,4.03
2019-05-25T12:22:40.679Z,5.47
2019-05-25T12:25:11.506Z,4.87
2019-05-25T12:27:40.873Z,4.67
2019-05-25T12:30:10.754Z,4.12
2019-05-25T12:32:40.146Z,3.55
2019-05-25T12:35:09.795Z,4.37
2019-05-25T12:37:39.218Z,4.97
2019-05-25T12:40:09.815Z,5.35
2019-05-25T12:42:39.130Z,5.42
2019-05-25T12:45:08.811Z,7.17
2019-05-25T12:47:38.243Z,1.82
2019-05-25T12:50:08.138Z,2.37
2019-05-25T12:52:37.460Z,5.17
2019-05-25T12:55:07.220Z,1.40
2019-05-25T12:57:36.543Z,5.90
2019-05-25T13:00:15.677Z,1.20
2019-05-25T13:02:37.680Z,0.95
2019-05-25T13:05:07.545Z,3.67
2019-05-25T13:07:36.890Z,2.05
2019-05-25T13:10:07.570Z,1.75
2019-05-25T13:12:36.893Z,2.22
2019-05-25T13:15:07.362Z,2.47
2019-05-25T13:17:36.874Z,1.77
2019-05-25T13:20:06.954Z,1.32
2019-05-25T13:22:36.394Z,2.52
2019-05-25T13:25:07.286Z,3.45
2019-05-25T13:27:36.734Z,0.60
2019-05-25T13:30:07.438Z,2.83
2019-05-25T13:32:36.873Z,0.82
2019-05-25T13:35:08.654Z,0.82
2019-05-25T13:37:37.974Z,2.42
2019-05-25T13:40:08.923Z,1.10
2019-05-25T13:42:38.286Z,1.00
2019-05-25T13:45:08.797Z,4.60
2019-05-25T13:47:39.954Z,0.82
2019-05-25T13:50:10.637Z,4.45
2019-05-25T13:52:39.954Z,3.35
2019-05-25T13:55:09.405Z,3.95
2019-05-25T13:57:38.942Z,0.95
2019-05-25T14:00:09.361Z,0.70
2019-05-25T14:02:38.781Z,0.47
2019-05-25T14:05:08.542Z,0.90
2019-05-25T14:07:38.957Z,0.57
2019-05-25T14:10:08.910Z,0.50
2019-05-25T14:12:38.245Z,1.35
2019-05-25T14:15:09.177Z,1.32
2019-05-25T14:17:38.690Z,0.68
2019-05-25T14:20:08.958Z,2.58
2019-05-25T14:22:38.349Z,2.95
2019-05-25T14:25:08.908Z,0.85
2019-05-25T14:27:38.409Z,3.22
2019-05-25T14:30:08.303Z,1.07
2019-05-25T14:32:37.698Z,9.55
2019-05-25T14:35:07.290Z,2.70
2019-05-25T14:37:36.618Z,0.60
2019-05-25T14:40:11.053Z,2.08
2019-05-25T14:42:39.003Z,3.02
2019-05-25T14:45:08.893Z,1.22
2019-05-25T14:47:38.274Z,2.47
2019-05-25T14:50:08.222Z,1.07
2019-05-25T14:52:37.811Z,1.20
2019-05-25T14:55:08.869Z,0.70
2019-05-25T14:57:38.214Z,3.30
2019-05-25T15:00:09.950Z,1.98
2019-05-25T15:02:39.359Z,2.72
2019-05-25T15:05:09.014Z,0.82
2019-05-25T15:07:38.383Z,0.80
2019-05-25T15:10:08.209Z,0.88
2019-05-25T15:12:37.553Z,0.72
2019-05-25T15:15:10.159Z,0.88
2019-05-25T15:17:42.714Z,1.42
2019-05-25T15:20:11.010Z,0.85
2019-05-25T15:22:40.338Z,3.67
2019-05-25T15:25:10.299Z,1.25
2019-05-25T15:27:39.636Z,0.88
2019-05-25T15:30:10.291Z,2.75
2019-05-25T15:32:39.635Z,1.67
2019-05-25T15:35:09.127Z,1.57
2019-05-25T15:37:38.482Z,1.92
2019-05-25T15:40:11.630Z,1.72
2019-05-25T15:42:40.957Z,1.70
2019-05-25T15:45:10.651Z,1.67
2019-05-25T15:47:40.053Z,2.35
2019-05-25T15:50:11.309Z,1.40
2019-05-25T15:52:40.642Z,1.57
2019-05-25T15:55:10.965Z,0.95
2019-05-25T15:57:40.480Z,1.42
2019-05-25T16:00:11.236Z,1.67
2019-05-25T16:02:40.690Z,3.08
2019-05-25T16:05:10.447Z,4.10
2019-05-25T16:07:43.262Z,2.05
2019-05-25T16:10:12.846Z,3.75
2019-05-25T16:12:42.322Z,1.60
2019-05-25T16:15:11.648Z,2.95
2019-05-25T16:17:40.975Z,1.57
2019-05-25T16:20:10.636Z,3.47
2019-05-25T16:22:41.042Z,0.98
2019-05-25T16:25:10.680Z,0.90
2019-05-25T16:27:40.042Z,2.10
2019-05-25T16:30:09.627Z,1.87
2019-05-25T16:33:10.136Z,3.85
2019-05-25T16:35:10.002Z,1.40
2019-05-25T16:37:39.839Z,2.62
2019-05-25T16:40:10.015Z,0.95
2019-05-25T16:42:39.728Z,2.37
2019-05-25T16:45:10.294Z,3.17
2019-05-25T16:47:39.654Z,1.77
2019-05-25T16:50:09.780Z,3.75
2019-05-25T16:52:39.143Z,1.42
2019-05-25T16:55:08.982Z,2.98
2019-05-25T16:57:38.326Z,1.20
2019-05-25T17:00:07.994Z,2.92
2019-05-25T17:02:37.317Z,1.20
2019-05-25T17:05:09.358Z,5.12
2019-05-25T17:07:38.696Z,2.70
2019-05-25T17:10:08.261Z,5.03
2019-05-25T17:12:37.580Z,2.42
2019-05-25T17:15:07.647Z,1.20
2019-05-25T17:17:36.962Z,2.75
2019-05-25T17:20:06.846Z,2.87
2019-05-25T17:22:36.214Z,6.75
2019-05-25T17:25:07.352Z,2.85
2019-05-25T17:27:36.662Z,2.30
2019-05-25T17:30:09.855Z,2.15
2019-05-25T17:32:39.178Z,4.08
2019-05-25T17:35:08.654Z,5.90
2019-05-25T17:37:38.033Z,1.10
2019-05-25T17:40:08.406Z,1.65
2019-05-25T17:42:37.793Z,1.30
2019-05-25T17:45:07.480Z,2.80
2019-05-25T17:47:36.870Z,2.33
2019-05-25T17:50:07.937Z,2.87
2019-05-25T17:52:37.263Z,2.20
2019-05-25T17:55:07.635Z,1.65
2019-05-25T17:57:37.014Z,1.40
2019-05-25T18:00:10.390Z,1.52
2019-05-25T18:02:39.706Z,1.80
2019-05-25T18:05:09.829Z,1.90
2019-05-25T18:07:39.149Z,1.50
2019-05-25T18:10:09.030Z,2.35
2019-05-25T18:12:38.450Z,2.02
2019-05-25T18:15:10.408Z,2.30
2019-05-25T18:17:39.847Z,1.85
2019-05-25T18:20:10.822Z,1.70
2019-05-25T18:22:40.141Z,2.45
2019-05-25T18:25:10.790Z,3.87
2019-05-25T18:27:40.181Z,2.62
2019-05-25T18:30:11.850Z,2.20
2019-05-25T18:32:41.174Z,3.08
2019-05-25T18:35:10.606Z,2.37
2019-05-25T18:37:39.934Z,2.80
2019-05-25T18:40:09.802Z,3.30
2019-05-25T18:42:39.170Z,2.33
2019-05-25T18:45:09.031Z,2.45
2019-05-25T18:47:39.442Z,2.72
2019-05-25T18:50:10.434Z,2.33
2019-05-25T18:52:39.837Z,3.30
2019-05-25T18:55:09.427Z,3.87
2019-05-25T18:57:38.760Z,2.83
2019-05-25T19:00:09.993Z,2.92
2019-05-25T19:02:39.346Z,3.60
2019-05-25T19:05:09.201Z,2.47
2019-05-25T19:07:38.518Z,4.97
2019-05-25T19:10:08.911Z,3.70
2019-05-25T19:12:38.430Z,4.17
2019-05-25T19:15:08.506Z,3.50
2019-05-25T19:17:37.827Z,5.97
2019-05-25T19:20:09.472Z,11.80
2019-05-25T19:22:38.994Z,8.20
2019-05-25T19:25:09.072Z,4.50
2019-05-25T19:27:38.529Z,5.20
2019-05-25T19:30:10.216Z,5.97
2019-05-25T19:32:39.550Z,5.20
2019-05-25T19:35:11.323Z,5.67
2019-05-25T19:37:42.352Z,3.47
2019-05-25T19:40:12.108Z,4.50
2019-05-25T19:42:41.422Z,2.60
2019-05-25T19:45:10.943Z,3.50
2019-05-25T19:47:40.266Z,6.05
2019-05-25T19:50:10.495Z,5.25
2019-05-25T19:52:39.865Z,2.90
2019-05-25T19:55:10.020Z,4.30
2019-05-25T19:57:39.410Z,3.02
2019-05-25T20:00:10.461Z,8.48
2019-05-25T20:02:39.802Z,3.37
2019-05-25T20:05:16.270Z,4.37
2019-05-25T20:07:40.515Z,5.67
2019-05-25T20:10:11.785Z,3.83
2019-05-25T20:12:41.157Z,5.33
2019-05-25T20:15:10.644Z,7.67
2019-05-25T20:17:40.186Z,17.00
2019-05-25T20:20:09.847Z,9.00
2019-05-25T20:22:39.179Z,4.78
2019-05-25T20:25:08.744Z,5.42
2019-05-25T20:27:38.078Z,4.78
2019-05-25T20:30:09.013Z,4.60
2019-05-25T20:32:38.348Z,3.42
2019-05-25T20:35:08.109Z,3.60
2019-05-25T20:37:37.439Z,3.67
2019-05-25T20:40:09.387Z,5.47
2019-05-25T20:42:39.025Z,3.58
2019-05-25T20:45:09.010Z,2.90
2019-05-25T20:47:38.352Z,5.80
2019-05-25T20:50:08.637Z,4.35
2019-05-25T20:52:38.085Z,4.42
2019-05-25T20:55:08.576Z,2.70
2019-05-25T20:57:37.908Z,4.42
2019-05-25T21:00:07.681Z,4.70
2019-05-25T21:02:37.179Z,6.92
2019-05-25T21:05:07.358Z,6.53
2019-05-25T21:07:36.746Z,9.10
2019-05-25T21:10:07.211Z,8.43
2019-05-25T21:12:36.673Z,8.65
2019-05-25T21:15:07.987Z,7.05
2019-05-25T21:17:37.452Z,7.35
2019-05-25T21:20:07.414Z,6.20
2019-05-25T21:22:36.750Z,4.58
2019-05-25T21:25:07.585Z,4.80
2019-05-25T21:27:37.987Z,4.28
2019-05-25T21:30:09.520Z,5.92
2019-05-25T21:32:38.844Z,5.85
2019-05-25T21:35:08.402Z,7.42
2019-05-25T21:37:37.735Z,6.33
2019-05-25T21:40:08.590Z,8.08
2019-05-25T21:42:38.892Z,5.78
2019-05-25T21:45:08.378Z,4.35
2019-05-25T21:47:37.720Z,4.67
2019-05-25T21:50:07.485Z,5.53
2019-05-25T21:52:37.104Z,5.03
2019-05-25T21:55:07.837Z,3.58
2019-05-25T21:57:37.268Z,5.45
2019-05-25T22:00:10.500Z,3.55
2019-05-25T22:02:40.166Z,3.40
2019-05-25T22:05:10.346Z,4.20
2019-05-25T22:07:39.751Z,5.10
2019-05-25T22:10:09.805Z,5.67
2019-05-25T22:12:40.421Z,3.80
2019-05-25T22:15:11.936Z,5.12
2019-05-25T22:17:41.390Z,4.25
2019-05-25T22:20:11.019Z,7.22
2019-05-25T22:22:40.555Z,4.58
2019-05-25T22:25:11.294Z,4.65
2019-05-25T22:27:40.625Z,5.45
2019-05-25T22:30:10.857Z,7.67
2019-05-25T22:32:40.192Z,5.80
2019-05-25T22:35:09.941Z,5.83
2019-05-25T22:37:39.271Z,5.50
2019-05-25T22:40:10.158Z,8.35
2019-05-25T22:42:39.485Z,3.12
2019-05-25T22:45:09.942Z,5.10
2019-05-25T22:47:39.278Z,4.30
2019-05-25T22:50:09.336Z,4.67
2019-05-25T22:52:38.664Z,4.45
2019-05-25T22:55:09.039Z,5.33
2019-05-25T22:57:38.381Z,3.70
2019-05-25T23:00:10.459Z,5.37
2019-05-25T23:02:39.869Z,3.25
2019-05-25T23:05:10.486Z,4.47
2019-05-25T23:07:39.809Z,6.47
2019-05-25T23:10:09.681Z,3.42
2019-05-25T23:12:39.972Z,6.45
2019-05-25T23:15:09.960Z,3.17
2019-05-25T23:17:39.430Z,5.90
2019-05-25T23:20:10.030Z,3.77
2019-05-25T23:22:39.424Z,4.53
2019-05-25T23:25:08.997Z,4.50
2019-05-25T23:27:38.378Z,3.33
2019-05-25T23:30:08.550Z,3.62
2019-05-25T23:32:37.883Z,3.20
2019-05-25T23:35:08.051Z,3.50
2019-05-25T23:37:37.367Z,5.58
2019-05-25T23:40:09.214Z,3.60
2019-05-25T23:42:38.602Z,6.00
2019-05-25T23:45:08.469Z,4.83
2019-05-25T23:47:37.798Z,3.62
2019-05-25T23:50:07.952Z,4.80
2019-05-25T23:52:37.344Z,5.42
2019-05-25T23:55:07.494Z,3.67
2019-05-25T23:57:36.812Z,3.58
